createdAt,value
2022-11-26T00:00:03.299Z,102536.80
2022-11-26T00:02:32.312Z,102545.86
2022-11-26T00:05:00.944Z,102549.00
2022-11-26T00:07:30.264Z,102548.15
2022-11-26T00:10:02.338Z,102547.55
2022-11-26T00:12:35.151Z,102550.11
2022-11-26T00:15:12.148Z,102552.92
2022-11-26T00:17:40.098Z,102551.52
2022-11-26T00:20:10.717Z,102552.66
2022-11-26T00:22:43.449Z,102560.02
2022-11-26T00:25:15.972Z,102564.27
2022-11-26T00:27:44.047Z,102568.55
2022-11-26T00:30:20.173Z,102579.89
2022-11-26T00:32:53.735Z,102577.05
2022-11-26T00:35:26.391Z,102575.87
2022-11-26T00:37:56.061Z,102586.37
2022-11-26T00:40:29.133Z,102576.16
2022-11-26T00:43:02.000Z,102574.44
2022-11-26T00:45:31.591Z,102582.97
2022-11-26T00:47:59.643Z,102583.23
2022-11-26T00:50:28.295Z,102586.89
2022-11-26T00:52:56.799Z,102579.50
2022-11-26T00:55:32.615Z,102576.92
2022-11-26T00:58:00.510Z,102573.52
2022-11-26T01:00:30.797Z,102566.72
2022-11-26T01:02:58.889Z,102561.91
2022-11-26T01:05:31.629Z,102560.77
2022-11-26T01:08:04.056Z,102564.20
2022-11-26T01:10:32.084Z,102556.26
2022-11-26T01:13:00.109Z,102565.31
2022-11-26T01:15:29.189Z,102566.72
2022-11-26T01:17:56.992Z,102568.16
2022-11-26T01:20:29.927Z,102571.52
2022-11-26T01:22:58.925Z,102573.45
2022-11-26T01:25:32.760Z,102578.00
2022-11-26T01:28:00.793Z,102577.93
2022-11-26T01:30:33.831Z,102585.62
2022-11-26T01:33:02.365Z,102591.53
2022-11-26T01:35:30.177Z,102589.24
2022-11-26T01:38:02.546Z,102592.94
2022-11-26T01:40:32.887Z,102595.46
2022-11-26T01:43:02.523Z,102604.22
2022-11-26T01:45:30.468Z,102602.78
2022-11-26T01:47:58.524Z,102614.68
2022-11-26T01:50:32.481Z,102617.20
2022-11-26T01:53:29.378Z,102625.18
2022-11-26T01:56:00.310Z,102630.25
2022-11-26T01:58:51.837Z,102639.63
2022-11-26T02:01:20.082Z,102641.59
2022-11-26T02:04:09.672Z,102639.89
2022-11-26T02:06:38.049Z,102646.95
2022-11-26T02:09:10.737Z,102647.48
2022-11-26T02:11:43.391Z,102645.26
2022-11-26T02:14:18.910Z,102640.97
2022-11-26T02:17:05.564Z,102659.38
2022-11-26T02:19:54.734Z,102661.96
2022-11-26T02:22:31.462Z,102670.13
2022-11-26T02:25:28.745Z,102674.95
2022-11-26T02:28:16.889Z,102684.03
2022-11-26T02:30:50.196Z,102683.48
2022-11-26T02:33:30.982Z,102688.91
2022-11-26T02:36:02.688Z,102687.20
2022-11-26T02:38:35.693Z,102690.63
2022-11-26T02:41:03.650Z,102685.27
2022-11-26T02:43:37.572Z,102688.97
2022-11-26T02:46:11.965Z,102690.96
2022-11-26T02:48:48.020Z,102694.98
2022-11-26T02:51:21.155Z,102706.66
2022-11-26T02:53:49.031Z,102708.65
2022-11-26T02:56:27.437Z,102713.79
2022-11-26T02:58:55.523Z,102717.19
2022-11-26T03:01:30.481Z,102714.15
2022-11-26T03:04:05.075Z,102724.12
2022-11-26T03:06:33.890Z,102728.07
2022-11-26T03:09:01.972Z,102741.71
2022-11-26T03:11:30.030Z,102738.34
2022-11-26T03:13:58.422Z,102741.19
2022-11-26T03:16:30.874Z,102746.02
2022-11-26T03:19:03.715Z,102752.53
2022-11-26T03:21:36.359Z,102763.32
2022-11-26T03:24:04.320Z,102754.82
2022-11-26T03:26:32.409Z,102763.09
2022-11-26T03:29:00.380Z,102761.69
2022-11-26T03:31:32.834Z,102755.73
2022-11-26T03:34:01.754Z,102757.44
2022-11-26T03:36:35.863Z,102754.63
2022-11-26T03:39:03.944Z,102758.28
2022-11-26T03:41:32.073Z,102753.74
2022-11-26T03:44:03.036Z,102758.28
2022-11-26T03:46:31.141Z,102761.98
2022-11-26T03:48:59.184Z,102759.40
2022-11-26T03:51:27.358Z,102758.28
2022-11-26T03:53:58.036Z,102756.32
2022-11-26T03:56:26.011Z,102765.09
2022-11-26T03:58:53.875Z,102757.77
2022-11-26T04:01:21.789Z,102764.86
2022-11-26T04:03:54.186Z,102761.45
2022-11-26T04:06:22.524Z,102770.25
2022-11-26T04:08:50.452Z,102765.19
2022-11-26T04:11:18.719Z,102767.41
2022-11-26T04:13:47.900Z,102770.84
2022-11-26T04:16:15.978Z,102778.52
2022-11-26T04:18:45.841Z,102770.25
2022-11-26T04:21:13.721Z,102773.69
2022-11-26T04:23:41.950Z,102769.70
2022-11-26T04:26:10.066Z,102775.13
2022-11-26T04:28:38.970Z,102783.36
2022-11-26T04:31:07.047Z,102774.83
2022-11-26T04:33:35.251Z,102771.98
2022-11-26T04:36:03.423Z,102772.57
2022-11-26T04:38:31.324Z,102775.71
2022-11-26T04:41:02.004Z,102773.75
2022-11-26T04:43:29.986Z,102762.41
2022-11-26T04:45:58.023Z,102760.70
2022-11-26T04:48:26.194Z,102763.22
2022-11-26T04:50:56.098Z,102768.95
2022-11-26T04:53:24.243Z,102760.15
2022-11-26T04:56:10.232Z,102756.45
2022-11-26T04:58:38.125Z,102760.15
2022-11-26T05:01:06.288Z,102764.07
2022-11-26T05:03:39.137Z,102774.90
2022-11-26T05:06:12.869Z,102772.05
2022-11-26T05:08:40.708Z,102781.40
2022-11-26T05:11:11.301Z,102782.25
2022-11-26T05:13:39.339Z,102784.24
2022-11-26T05:16:11.804Z,102784.51
2022-11-26T05:18:39.823Z,102782.22
2022-11-26T05:21:08.133Z,102779.93
2022-11-26T05:23:35.993Z,102784.73
2022-11-26T05:26:03.967Z,102780.81
2022-11-26T05:28:36.633Z,102788.73
2022-11-26T05:31:04.867Z,102801.77
2022-11-26T05:33:43.760Z,102797.23
2022-11-26T05:36:11.664Z,102794.64
2022-11-26T05:38:39.747Z,102797.23
2022-11-26T05:41:07.892Z,102801.77
2022-11-26T05:43:36.392Z,102810.53
2022-11-26T05:46:17.709Z,102818.45
2022-11-26T05:48:50.412Z,102825.57
2022-11-26T05:51:20.692Z,102829.01
2022-11-26T05:53:52.715Z,102825.87
2022-11-26T05:56:21.092Z,102817.95
2022-11-26T05:58:53.864Z,102821.09
2022-11-26T06:01:21.796Z,102816.55
2022-11-26T06:03:49.785Z,102820.54
2022-11-26T06:06:19.026Z,102817.95
2022-11-26T06:08:51.652Z,102827.05
2022-11-26T06:11:20.371Z,102825.61
2022-11-26T06:13:48.606Z,102827.90
2022-11-26T06:16:17.703Z,102825.61
2022-11-26T06:18:45.817Z,102824.98
2022-11-26T06:21:14.080Z,102834.92
2022-11-26T06:23:49.656Z,102831.55
2022-11-26T06:26:23.690Z,102831.23
2022-11-26T06:28:51.814Z,102839.44
2022-11-26T06:34:06.309Z,102832.44
2022-11-26T06:36:36.979Z,102829.89
2022-11-26T06:39:05.266Z,102828.74
2022-11-26T06:41:34.440Z,102834.44
2022-11-26T06:44:02.501Z,102819.98
2022-11-26T06:46:30.591Z,102823.94
2022-11-26T06:49:05.610Z,102822.24
2022-11-26T06:51:33.831Z,102830.45
2022-11-26T06:54:02.057Z,102845.23
2022-11-26T06:56:34.532Z,102841.86
2022-11-26T06:59:07.506Z,102850.13
2022-11-26T07:01:35.813Z,102854.64
2022-11-26T07:04:04.258Z,102858.92
2022-11-26T07:06:33.132Z,102860.10
2022-11-26T07:09:05.602Z,102862.91
2022-11-26T07:11:39.473Z,102858.95
2022-11-26T07:14:07.897Z,102865.23
2022-11-26T07:16:38.130Z,102863.53
2022-11-26T07:19:08.810Z,102860.69
2022-11-26T07:21:36.922Z,102863.53
2022-11-26T07:24:09.694Z,102865.23
2022-11-26T07:26:37.771Z,102873.18
2022-11-26T07:29:05.886Z,102882.59
2022-11-26T07:31:33.786Z,102877.53
2022-11-26T07:34:06.416Z,102885.21
2022-11-26T07:36:39.739Z,102882.95
2022-11-26T07:39:07.634Z,102905.98
2022-11-26T07:41:35.462Z,102903.49
2022-11-26T07:44:08.806Z,102908.63
2022-11-26T07:46:37.991Z,102918.01
2022-11-26T07:49:06.080Z,102922.59
2022-11-26T07:51:34.136Z,102928.30
2022-11-26T07:54:05.293Z,102933.73
2022-11-26T07:56:33.237Z,102944.82
2022-11-26T07:59:04.108Z,102955.05
2022-11-26T08:01:32.172Z,102956.75
2022-11-26T08:04:00.738Z,102947.70
2022-11-26T08:06:33.147Z,102944.30
2022-11-26T08:09:01.372Z,102947.73
2022-11-26T08:11:30.679Z,102938.93
2022-11-26T08:14:11.201Z,102942.07
2022-11-26T08:16:39.465Z,102945.77
2022-11-26T08:19:09.387Z,102947.50
2022-11-26T08:21:37.723Z,102950.87
2022-11-26T08:24:06.272Z,102942.89
2022-11-26T08:26:39.692Z,102942.30
2022-11-26T08:29:10.551Z,102951.39
2022-11-26T08:31:49.040Z,102949.95
2022-11-26T08:37:02.549Z,102950.51
2022-11-26T08:39:30.433Z,102957.86
2022-11-26T08:42:03.408Z,102957.57
2022-11-26T08:44:31.367Z,102961.27
2022-11-26T08:47:04.238Z,102958.42
2022-11-26T08:49:37.296Z,102962.12
2022-11-26T08:52:10.175Z,102969.47
2022-11-26T08:54:48.893Z,102976.08
2022-11-26T08:57:17.302Z,102976.30
2022-11-26T08:59:48.137Z,102974.31
2022-11-26T09:02:19.207Z,102971.20
2022-11-26T09:04:47.684Z,102973.46
2022-11-26T09:07:16.151Z,102974.90
2022-11-26T09:09:48.946Z,102966.40
2022-11-26T09:12:18.774Z,102969.21
2022-11-26T09:14:46.773Z,102975.23
2022-11-26T09:17:15.030Z,102974.96
2022-11-26T09:19:47.577Z,102982.58
2022-11-26T09:22:15.962Z,102980.36
2022-11-26T09:24:44.009Z,102975.81
2022-11-26T09:27:16.816Z,102974.41
2022-11-26T09:29:44.610Z,102983.50
2022-11-26T09:32:32.617Z,102982.78
2022-11-26T09:35:00.194Z,102972.19
2022-11-26T09:37:27.966Z,102981.70
2022-11-26T09:39:55.768Z,102978.88
2022-11-26T09:42:47.969Z,102980.59
2022-11-26T09:45:52.715Z,102984.55
2022-11-26T09:48:29.743Z,102985.36
2022-11-26T09:51:18.622Z,102986.99
2022-11-26T09:53:47.943Z,102980.98
2022-11-26T09:56:39.409Z,102984.12
2022-11-26T09:59:12.140Z,102988.63
2022-11-26T10:01:41.418Z,102992.03
2022-11-26T10:04:10.426Z,102992.29
2022-11-26T10:06:48.624Z,102987.19
2022-11-26T10:09:49.004Z,102988.89
2022-11-26T10:13:17.870Z,102988.56
2022-11-26T10:16:11.068Z,102985.72
2022-11-26T10:18:58.762Z,102986.30
2022-11-26T10:21:57.139Z,102994.29
2022-11-26T10:24:33.479Z,102989.19
2022-11-26T10:27:03.931Z,102982.94
2022-11-26T10:29:45.810Z,102979.54
2022-11-26T10:32:22.736Z,102985.46
2022-11-26T10:34:57.309Z,102991.45
2022-11-26T10:37:30.634Z,102976.66
2022-11-26T10:40:04.403Z,102970.42
2022-11-26T10:42:47.551Z,102967.57
2022-11-26T10:45:48.779Z,102967.02
2022-11-26T10:48:32.190Z,102973.55
2022-11-26T10:51:10.541Z,102965.02
2022-11-26T10:53:58.566Z,102962.73
2022-11-26T10:56:48.003Z,102961.63
2022-11-26T10:59:56.370Z,102957.66
2022-11-26T11:02:24.281Z,102965.65
2022-11-26T11:04:59.833Z,102958.29
2022-11-26T11:07:38.167Z,102957.14
2022-11-26T11:10:17.875Z,102956.03
2022-11-26T11:13:11.130Z,102958.32
2022-11-26T11:15:42.297Z,102954.33
2022-11-26T11:18:27.517Z,102944.95
2022-11-26T11:20:57.245Z,102946.09
2022-11-26T11:24:00.060Z,102945.54
2022-11-26T11:26:25.264Z,102944.39
2022-11-26T11:28:56.507Z,102943.58
2022-11-26T11:31:25.928Z,102944.78
2022-11-26T11:34:20.067Z,102943.05
2022-11-26T11:37:18.063Z,102937.63
2022-11-26T11:39:46.065Z,102927.65
2022-11-26T11:42:33.590Z,102924.41
2022-11-26T11:45:01.807Z,102932.26
2022-11-26T11:47:32.496Z,102917.87
2022-11-26T11:50:27.366Z,102913.69
2022-11-26T11:53:17.849Z,102915.26
2022-11-26T11:56:00.899Z,102911.70
2022-11-26T11:59:05.372Z,102915.42
2022-11-26T12:01:39.422Z,102909.99
2022-11-26T12:04:19.871Z,102909.84
2022-11-26T12:07:23.067Z,102911.23
2022-11-26T12:10:01.534Z,102898.95
2022-11-26T12:12:34.721Z,102894.20
2022-11-26T12:15:19.732Z,102890.61
2022-11-26T12:18:12.302Z,102891.16
2022-11-26T12:20:58.359Z,102893.71
2022-11-26T12:23:40.136Z,102893.38
2022-11-26T12:26:21.976Z,102889.59
2022-11-26T12:29:00.978Z,102888.71
2022-11-26T12:31:38.006Z,102886.45
2022-11-26T12:34:13.792Z,102886.88
2022-11-26T12:37:07.523Z,102889.95
2022-11-26T12:39:53.941Z,102880.99
2022-11-26T12:42:24.993Z,102893.74
2022-11-26T12:44:53.549Z,102900.48
2022-11-26T12:47:21.367Z,102898.06
2022-11-26T12:50:07.156Z,102890.94
2022-11-26T12:52:40.811Z,102881.52
2022-11-26T12:55:29.587Z,102895.15
2022-11-26T12:58:04.374Z,102889.27
2022-11-26T13:00:36.667Z,102897.90
2022-11-26T13:03:06.143Z,102898.52
2022-11-26T13:05:56.639Z,102910.32
2022-11-26T13:08:33.288Z,102907.55
2022-11-26T13:11:22.764Z,102906.46
2022-11-26T13:14:45.829Z,102906.79
2022-11-26T13:17:15.363Z,102896.85
2022-11-26T13:20:11.058Z,102894.89
2022-11-26T13:22:54.011Z,102887.53
2022-11-26T13:25:44.079Z,102896.13
2022-11-26T13:28:19.482Z,102881.95
2022-11-26T13:31:05.398Z,102897.96
2022-11-26T13:33:55.960Z,102887.70
2022-11-26T13:36:28.187Z,102885.70
2022-11-26T13:38:55.836Z,102876.55
2022-11-26T13:41:40.983Z,102876.52
2022-11-26T13:44:35.188Z,102882.20
2022-11-26T13:47:42.025Z,102884.20
2022-11-26T13:50:25.093Z,102881.65
2022-11-26T13:53:06.267Z,102875.99
2022-11-26T13:55:47.546Z,102877.73
2022-11-26T13:58:28.750Z,102871.45
2022-11-26T14:00:56.494Z,102872.04
2022-11-26T14:03:48.415Z,102874.62
2022-11-26T14:06:16.433Z,102866.94
2022-11-26T14:08:46.188Z,102871.52
2022-11-26T14:11:17.191Z,102865.79
2022-11-26T14:14:13.962Z,102861.54
2022-11-26T14:17:07.989Z,102871.80
2022-11-26T14:19:41.647Z,102877.49
2022-11-26T14:22:12.314Z,102872.69
2022-11-26T14:24:48.825Z,102869.52
2022-11-26T14:27:16.844Z,102873.54
2022-11-26T14:29:49.194Z,102866.41
2022-11-26T14:32:23.612Z,102887.50
2022-11-26T14:34:55.997Z,102879.00
2022-11-26T14:37:29.384Z,102882.95
2022-11-26T14:40:09.139Z,102884.95
2022-11-26T14:42:42.336Z,102889.49
2022-11-26T14:45:17.939Z,102875.57
2022-11-26T14:47:52.710Z,102873.57
2022-11-26T14:50:24.805Z,102876.97
2022-11-26T14:52:59.590Z,102878.45
2022-11-26T14:55:30.021Z,102872.16
2022-11-26T14:58:03.724Z,102872.72
2022-11-26T15:00:35.477Z,102865.34
2022-11-26T15:03:19.376Z,102855.91
2022-11-26T15:05:47.256Z,102853.34
2022-11-26T15:08:19.404Z,102862.75
2022-11-26T15:11:21.447Z,102861.02
2022-11-26T15:13:49.596Z,102845.09
2022-11-26T15:16:33.552Z,102856.18
2022-11-26T15:19:01.421Z,102854.48
2022-11-26T15:21:29.138Z,102853.92
2022-11-26T15:23:58.932Z,102849.93
2022-11-26T15:26:26.929Z,102847.09
2022-11-26T15:28:54.938Z,102848.20
2022-11-26T15:31:22.765Z,102847.94
2022-11-26T15:33:53.793Z,102852.77
2022-11-26T15:36:21.656Z,102853.34
2022-11-26T15:39:09.147Z,102855.06
2022-11-26T15:41:43.173Z,102842.80
2022-11-26T15:44:24.973Z,102853.37
2022-11-26T15:46:54.079Z,102846.53
2022-11-26T15:49:27.916Z,102853.89
2022-11-26T15:52:00.510Z,102850.75
2022-11-26T15:55:10.678Z,102843.36
2022-11-26T15:57:36.083Z,102832.51
2022-11-26T16:00:10.865Z,102833.36
2022-11-26T16:02:38.718Z,102838.42
2022-11-26T16:05:24.322Z,102834.44
2022-11-26T16:08:33.543Z,102826.45
2022-11-26T16:11:08.711Z,102831.03
2022-11-26T16:13:36.886Z,102829.56
2022-11-26T16:16:22.559Z,102824.13
2022-11-26T16:18:57.657Z,102825.25
2022-11-26T16:21:28.825Z,102832.05
2022-11-26T16:24:09.667Z,102833.75
2022-11-26T16:27:06.519Z,102839.41
2022-11-26T16:29:35.218Z,102838.26
2022-11-26T16:32:04.285Z,102836.27
2022-11-26T16:34:32.067Z,102835.05
2022-11-26T16:37:04.610Z,102837.90
2022-11-26T16:39:39.082Z,102830.19
2022-11-26T16:42:24.316Z,102836.20
2022-11-26T16:44:52.107Z,102837.87
2022-11-26T16:47:40.674Z,102837.77
2022-11-26T16:50:14.708Z,102837.73
2022-11-26T16:52:42.739Z,102853.27
2022-11-26T16:55:14.890Z,102844.15
2022-11-26T16:57:43.412Z,102858.04
2022-11-26T17:00:21.998Z,102842.34
2022-11-26T17:02:50.120Z,102848.85
2022-11-26T17:05:18.579Z,102847.35
2022-11-26T17:07:51.104Z,102852.48
2022-11-26T17:10:20.596Z,102844.21
2022-11-26T17:12:48.461Z,102837.38
2022-11-26T17:15:16.256Z,102835.61
2022-11-26T17:17:44.050Z,102840.38
2022-11-26T17:20:23.539Z,102839.80
2022-11-26T17:22:51.267Z,102841.73
2022-11-26T17:25:19.259Z,102835.16
2022-11-26T17:27:51.755Z,102843.33
2022-11-26T17:30:21.790Z,102839.90
2022-11-26T17:32:49.614Z,102841.82
2022-11-26T17:35:17.492Z,102836.40
2022-11-26T17:37:45.261Z,102841.66
2022-11-26T17:40:21.465Z,102835.09
2022-11-26T17:42:50.724Z,102838.45
2022-11-26T17:45:19.180Z,102842.09
2022-11-26T17:47:47.074Z,102839.47
2022-11-26T17:50:35.138Z,102843.43
2022-11-26T17:53:02.902Z,102841.10
2022-11-26T17:55:30.671Z,102839.93
2022-11-26T17:58:03.506Z,102848.43
2022-11-26T18:00:31.401Z,102846.99
2022-11-26T18:02:59.389Z,102841.79
2022-11-26T18:05:27.395Z,102849.70
2022-11-26T18:07:55.356Z,102853.63
2022-11-26T18:10:23.716Z,102849.87
2022-11-26T18:12:53.916Z,102846.73
2022-11-26T18:15:26.076Z,102845.03
2022-11-26T18:17:54.919Z,102850.09
2022-11-26T18:20:26.965Z,102844.70
2022-11-26T18:22:56.776Z,102846.34
2022-11-26T18:25:24.577Z,102849.67
2022-11-26T18:27:52.856Z,102849.34
2022-11-26T18:30:21.164Z,102856.15
2022-11-26T18:32:53.554Z,102851.24
2022-11-26T18:35:21.285Z,102850.69
2022-11-26T18:37:54.090Z,102851.77
2022-11-26T18:40:22.079Z,102851.44
2022-11-26T18:42:53.345Z,102858.76
2022-11-26T18:45:21.106Z,102858.70
2022-11-26T18:47:49.070Z,102858.63
2022-11-26T18:50:16.843Z,102870.20
2022-11-26T18:52:44.679Z,102865.04
2022-11-26T18:55:14.566Z,102860.52
2022-11-26T18:57:42.332Z,102866.09
2022-11-26T19:00:10.531Z,102856.15
2022-11-26T19:02:38.504Z,102860.72
2022-11-26T19:05:06.750Z,102866.61
2022-11-26T19:07:34.752Z,102867.66
2022-11-26T19:10:02.530Z,102851.80
2022-11-26T19:12:30.244Z,102855.20
2022-11-26T19:14:59.875Z,102858.30
2022-11-26T19:17:27.739Z,102858.53
2022-11-26T19:19:55.482Z,102858.20
2022-11-26T19:22:23.698Z,102852.55
2022-11-26T19:24:51.493Z,102856.51
2022-11-26T19:27:19.374Z,102845.20
2022-11-26T19:29:47.136Z,102857.88
2022-11-26T19:32:14.994Z,102853.01
2022-11-26T19:34:42.851Z,102854.38
2022-11-26T19:37:10.602Z,102850.72
2022-11-26T19:39:38.925Z,102856.87
2022-11-26T19:42:07.021Z,102851.47
2022-11-26T19:44:35.497Z,102843.75
2022-11-26T19:47:03.803Z,102851.63
2022-11-26T19:49:31.677Z,102842.48
2022-11-26T19:51:59.556Z,102843.06
2022-11-26T19:54:27.414Z,102839.05
2022-11-26T19:56:55.225Z,102833.62
2022-11-26T19:59:22.962Z,102839.57
2022-11-26T20:01:50.760Z,102836.46
2022-11-26T20:04:19.048Z,102824.82
2022-11-26T20:06:53.005Z,102830.48
2022-11-26T20:09:20.776Z,102828.16
2022-11-26T20:11:48.566Z,102819.95
2022-11-26T20:14:16.278Z,102817.01
2022-11-26T20:16:44.922Z,102815.57
2022-11-26T20:19:12.901Z,102815.30
2022-11-26T20:21:40.927Z,102809.06
2022-11-26T20:24:12.049Z,102807.69
2022-11-26T20:26:42.028Z,102811.02
2022-11-26T20:29:11.937Z,102817.79
2022-11-26T20:31:49.566Z,102813.77
2022-11-26T20:34:18.633Z,102816.35
2022-11-26T20:36:46.501Z,102824.20
2022-11-26T20:39:15.557Z,102826.20
2022-11-26T20:41:43.490Z,102818.55
2022-11-26T20:44:11.342Z,102826.78
2022-11-26T20:46:39.293Z,102825.90
2022-11-26T20:49:07.300Z,102824.30
2022-11-26T20:51:35.774Z,102819.76
2022-11-26T20:54:03.662Z,102818.84
2022-11-26T20:56:31.432Z,102824.62
2022-11-26T20:58:59.198Z,102820.38
2022-11-26T21:01:28.475Z,102829.43
2022-11-26T21:03:56.666Z,102815.99
2022-11-26T21:06:29.671Z,102818.91
2022-11-26T21:09:01.716Z,102812.20
2022-11-26T21:11:30.309Z,102811.45
2022-11-26T21:13:58.900Z,102807.85
2022-11-26T21:16:27.125Z,102802.30
2022-11-26T21:19:04.030Z,102802.88
2022-11-26T21:21:31.720Z,102798.44
2022-11-26T21:24:00.107Z,102778.10
2022-11-26T21:26:27.963Z,102773.65
2022-11-26T21:28:57.124Z,102758.97
2022-11-26T21:31:25.246Z,102761.75
2022-11-26T21:34:08.868Z,102752.34
2022-11-26T21:36:37.194Z,102768.68
2022-11-26T21:39:05.454Z,102763.22
2022-11-26T21:41:38.136Z,102768.20
2022-11-26T21:44:06.031Z,102768.72
2022-11-26T21:46:38.183Z,102759.89
2022-11-26T21:49:11.291Z,102759.63
2022-11-26T21:51:39.118Z,102759.01
2022-11-26T21:54:07.036Z,102760.48
2022-11-26T21:56:34.958Z,102763.06
2022-11-26T21:59:03.072Z,102765.28
2022-11-26T22:01:35.483Z,102768.36
2022-11-26T22:04:17.888Z,102767.24
2022-11-26T22:06:47.260Z,102770.94
2022-11-26T22:09:15.939Z,102770.84
2022-11-26T22:11:44.526Z,102775.65
2022-11-26T22:14:14.718Z,102780.45
2022-11-26T22:16:42.600Z,102776.50
2022-11-26T22:19:11.804Z,102780.98
2022-11-26T22:21:41.011Z,102778.88
2022-11-26T22:24:11.410Z,102781.99
2022-11-26T22:26:39.153Z,102786.44
2022-11-26T22:29:06.973Z,102790.98
2022-11-26T22:31:36.583Z,102792.09
2022-11-26T22:34:07.137Z,102796.87
2022-11-26T22:36:48.755Z,102805.34
2022-11-26T22:39:17.615Z,102803.05
2022-11-26T22:41:46.233Z,102800.46
2022-11-26T22:44:14.722Z,102802.16
2022-11-26T22:46:47.095Z,102810.08
2022-11-26T22:49:16.876Z,102809.72
2022-11-26T22:51:44.841Z,102809.98
2022-11-26T22:54:15.981Z,102804.16
2022-11-26T22:56:43.824Z,102804.16
2022-11-26T22:59:13.186Z,102812.63
2022-11-26T23:01:42.144Z,102807.20
2022-11-26T23:04:12.793Z,102802.52
2022-11-26T23:06:40.686Z,102797.55
2022-11-26T23:09:09.117Z,102794.22
2022-11-26T23:11:39.771Z,102802.10
2022-11-26T23:14:08.552Z,102802.36
2022-11-26T23:16:37.450Z,102802.63
2022-11-26T23:19:05.579Z,102815.11
2022-11-26T23:21:38.597Z,102807.49
2022-11-26T23:24:06.957Z,102806.12
2022-11-26T23:26:35.403Z,102818.12
2022-11-26T23:29:03.566Z,102816.74
2022-11-26T23:31:33.129Z,102811.38
2022-11-26T23:34:01.181Z,102814.72
2022-11-26T23:36:29.373Z,102802.78
2022-11-26T23:38:57.490Z,102800.07
2022-11-26T23:41:25.317Z,102795.10
2022-11-26T23:43:53.169Z,102791.77
2022-11-26T23:46:29.307Z,102792.09
2022-11-26T23:48:57.256Z,102794.41
2022-11-26T23:51:29.843Z,102781.96
2022-11-26T23:53:57.899Z,102779.51
2022-11-26T23:56:31.681Z,102776.70
2022-11-26T23:59:01.640Z,102776.07
